Time;durP1;ratioP1;P1;durP2;ratioP2;P2;SDS_P1;SDS_P2;PMS_P1;PMS_P2;Temp;Humidity;BMP_temperature;BMP_pressure;BME280_temperature;BME280_humidity;BME280_pressure;Samples;Min_cycle;Max_cycle;Signal;HPM_P1;HPM_P2
2021/05/29 00:02:18;;;;;;;6.72;6.20;;;11.80;95.10;;;;;;6121421;23;20053;-69
2021/05/29 00:04:44;;;;;;;8.60;6.95;;;12.00;94.60;;;;;;6120842;23;20057;-68
2021/05/29 00:07:10;;;;;;;8.45;6.32;;;12.00;94.10;;;;;;6147418;23;20022;-68
2021/05/29 00:09:37;;;;;;;6.75;6.15;;;11.90;94.20;;;;;;6120638;23;20042;-69
2021/05/29 00:12:06;;;;;;;7.03;6.13;;;11.90;94.30;;;;;;6121497;23;20109;-69
2021/05/29 00:14:34;;;;;;;6.97;6.32;;;11.80;94.60;;;;;;6123598;23;20025;-69
2021/05/29 00:17:00;;;;;;;7.50;6.90;;;11.90;94.60;;;;;;6121481;23;20096;-68
2021/05/29 00:19:26;;;;;;;10.35;7.25;;;11.90;94.50;;;;;;6121201;23;20400;-69
2021/05/29 00:21:52;;;;;;;7.95;7.00;;;11.90;94.60;;;;;;6120004;23;20101;-69
2021/05/29 00:24:18;;;;;;;8.35;7.45;;;11.90;94.60;;;;;;6121317;23;20065;-69
2021/05/29 00:26:44;;;;;;;8.75;7.85;;;11.90;94.50;;;;;;6121387;23;20049;-69
2021/05/29 00:29:10;;;;;;;8.13;7.13;;;11.90;94.70;;;;;;6119775;23;20026;-69
2021/05/29 00:31:36;;;;;;;10.32;7.30;;;11.80;94.70;;;;;;6121034;23;20017;-69
2021/05/29 00:34:02;;;;;;;9.20;7.47;;;11.90;94.70;;;;;;6122228;23;20353;-69
2021/05/29 00:36:28;;;;;;;9.15;7.20;;;12.00;94.40;;;;;;6144930;23;20018;-68
2021/05/29 00:38:54;;;;;;;8.35;7.45;;;11.90;94.30;;;;;;6120553;23;20100;-69
2021/05/29 00:41:20;;;;;;;9.43;8.02;;;11.90;94.40;;;;;;6124479;23;20464;-69
2021/05/29 00:43:47;;;;;;;12.07;7.45;;;11.80;94.40;;;;;;6144015;23;20109;-68
2021/05/29 00:46:13;;;;;;;8.68;7.72;;;11.80;94.60;;;;;;6120930;23;20100;-68
2021/05/29 00:48:40;;;;;;;9.15;7.28;;;11.90;94.50;;;;;;6098909;23;20022;-68
2021/05/29 00:51:07;;;;;;;8.68;7.68;;;12.00;94.40;;;;;;6119774;23;20022;-69
2021/05/29 00:53:34;;;;;;;10.55;6.82;;;12.00;94.50;;;;;;6120961;23;20384;-69
2021/05/29 00:56:03;;;;;;;9.90;7.53;;;12.00;94.40;;;;;;6119596;23;20032;-68
2021/05/29 00:58:29;;;;;;;12.52;8.23;;;12.00;94.80;;;;;;6146630;23;20044;-69
2021/05/29 01:00:56;;;;;;;9.48;7.10;;;12.00;94.70;;;;;;6119020;23;20614;-68
2021/05/29 01:03:22;;;;;;;10.20;8.25;;;12.00;94.80;;;;;;6120824;23;20022;-68
2021/05/29 01:05:48;;;;;;;11.90;7.43;;;12.10;95.80;;;;;;6124515;23;20022;-69
2021/05/29 01:08:15;;;;;;;11.00;8.48;;;12.10;95.50;;;;;;6120749;23;20046;-69
2021/05/29 01:10:41;;;;;;;9.00;7.55;;;12.10;95.40;;;;;;6121015;23;20523;-68
2021/05/29 01:13:10;;;;;;;9.27;8.25;;;12.10;95.30;;;;;;6121005;23;20057;-69
2021/05/29 01:15:40;;;;;;;13.90;8.27;;;12.10;95.20;;;;;;6120840;23;20531;-69
2021/05/29 01:18:09;;;;;;;13.15;8.25;;;12.00;95.20;;;;;;6122169;23;20363;-69
2021/05/29 01:20:36;;;;;;;8.38;7.60;;;12.00;95.20;;;;;;6120559;23;20021;-69
2021/05/29 01:23:03;;;;;;;8.88;7.95;;;12.00;95.30;;;;;;6120741;23;20049;-68
2021/05/29 01:25:37;;;;;;;9.32;6.88;;;12.00;97.10;;;;;;6120521;23;20048;-68
2021/05/29 01:28:27;;;;;;;8.38;7.15;;;12.00;96.90;;;;;;6120494;23;20489;-69
2021/05/29 01:30:56;;;;;;;8.50;7.38;;;11.90;95.60;;;;;;6118190;23;20464;-68
2021/05/29 01:33:27;;;;;;;8.75;7.40;;;11.90;95.90;;;;;;6120446;23;20049;-68
2021/05/29 01:35:57;;;;;;;7.35;6.80;;;11.90;96.40;;;;;;6123720;23;20044;-68
2021/05/29 01:38:23;;;;;;;8.35;7.47;;;11.90;96.60;;;;;;6120499;23;20093;-68
2021/05/29 01:40:50;;;;;;;9.55;7.60;;;11.80;96.70;;;;;;6120104;23;20097;-68
2021/05/29 01:43:17;;;;;;;8.48;7.10;;;11.80;96.70;;;;;;6123378;23;20060;-68
2021/05/29 01:45:45;;;;;;;9.40;7.95;;;11.70;96.80;;;;;;6119073;23;20026;-68
2021/05/29 01:48:11;;;;;;;13.02;7.95;;;11.70;96.60;;;;;;6121693;23;20026;-68
2021/05/29 01:50:49;;;;;;;11.82;7.95;;;11.50;96.90;;;;;;6122996;23;20032;-69
2021/05/29 01:53:20;;;;;;;8.95;7.68;;;11.50;97.00;;;;;;6118929;23;20096;-68
2021/05/29 01:55:47;;;;;;;9.50;8.52;;;11.40;97.10;;;;;;6121998;23;20543;-68
2021/05/29 01:58:15;;;;;;;9.80;7.90;;;11.40;97.20;;;;;;6120527;23;20021;-69
2021/05/29 02:00:41;;;;;;;8.77;7.97;;;11.30;97.30;;;;;;6120143;23;20488;-68
2021/05/29 02:03:07;;;;;;;8.85;7.88;;;11.30;97.80;;;;;;6122696;23;20021;-69
2021/05/29 02:05:35;;;;;;;9.48;8.32;;;11.30;97.40;;;;;;6120718;23;20026;-68
2021/05/29 02:08:04;;;;;;;13.68;8.82;;;11.30;97.10;;;;;;6143197;23;20025;-68
2021/05/29 02:10:31;;;;;;;10.13;8.25;;;11.30;97.30;;;;;;6121296;23;20022;-69
2021/05/29 02:13:00;;;;;;;14.07;8.45;;;11.30;97.00;;;;;;6120387;23;20076;-69
2021/05/29 02:15:33;;;;;;;9.82;8.82;;;11.30;97.20;;;;;;6143266;23;20052;-69
2021/05/29 02:18:02;;;;;;;10.40;8.70;;;11.20;97.40;;;;;;6122041;23;20018;-69
2021/05/29 02:20:43;;;;;;;11.02;9.57;;;11.10;97.20;;;;;;6120136;23;20050;-69
2021/05/29 02:23:11;;;;;;;11.55;8.80;;;11.10;97.40;;;;;;6143704;23;20487;-69
2021/05/29 02:25:37;;;;;;;12.30;10.15;;;11.00;97.60;;;;;;6142899;23;20567;-69
2021/05/29 02:28:04;;;;;;;10.93;8.63;;;11.00;97.60;;;;;;6123571;23;20371;-68
2021/05/29 02:30:30;;;;;;;13.07;9.90;;;11.00;97.50;;;;;;6122066;23;20076;-69
2021/05/29 02:32:56;;;;;;;13.10;10.00;;;11.00;97.80;;;;;;6120330;23;20093;-69
2021/05/29 02:35:22;;;;;;;13.90;10.10;;;11.00;98.00;;;;;;6125668;23;20104;-69
2021/05/29 02:37:48;;;;;;;13.60;10.88;;;11.00;98.00;;;;;;6145707;23;20417;-69
2021/05/29 02:40:14;;;;;;;13.48;10.20;;;11.00;98.10;;;;;;6144614;23;20060;-69
2021/05/29 02:42:40;;;;;;;14.43;11.05;;;11.00;97.90;;;;;;6125464;23;20053;-68
2021/05/29 02:45:07;;;;;;;13.63;11.63;;;11.00;98.10;;;;;;6123757;23;20017;-68
2021/05/29 02:47:33;;;;;;;16.52;10.98;;;11.00;97.90;;;;;;6145034;23;20049;-68
2021/05/29 02:50:00;;;;;;;12.57;10.73;;;11.00;98.00;;;;;;6125105;23;20022;-69
2021/05/29 02:52:26;;;;;;;13.93;11.10;;;11.00;98.00;;;;;;6120770;23;20058;-68
2021/05/29 02:54:53;;;;;;;20.90;12.07;;;11.10;97.90;;;;;;6120147;23;20097;-69
2021/05/29 02:57:19;;;;;;;14.00;12.07;;;11.10;97.90;;;;;;6125167;23;20460;-68
2021/05/29 02:59:45;;;;;;;16.60;13.25;;;11.00;98.00;;;;;;6145426;23;20045;-69
2021/05/29 03:02:11;;;;;;;15.80;11.65;;;11.00;98.00;;;;;;6121776;23;20054;-69
2021/05/29 03:04:37;;;;;;;18.13;11.93;;;11.00;98.10;;;;;;6121175;23;20076;-69
2021/05/29 03:07:05;;;;;;;12.32;10.88;;;11.00;98.10;;;;;;6122443;23;20032;-68
2021/05/29 03:09:32;;;;;;;13.30;11.13;;;10.90;98.10;;;;;;6121788;23;20076;-68
2021/05/29 03:11:59;;;;;;;21.80;10.20;;;11.00;98.40;;;;;;6125092;23;20021;-69
2021/05/29 03:14:25;;;;;;;25.23;18.63;;;11.10;98.00;;;;;;6145447;23;20072;-68
2021/05/29 03:16:52;;;;;;;14.95;12.57;;;11.20;97.60;;;;;;6121947;23;20049;-68
2021/05/29 03:19:18;;;;;;;16.48;12.10;;;11.20;97.70;;;;;;6124836;23;20073;-69
2021/05/29 03:21:44;;;;;;;19.27;12.80;;;11.30;97.90;;;;;;6121889;23;20053;-69
2021/05/29 03:24:12;;;;;;;23.40;18.35;;;11.30;97.40;;;;;;6144938;23;20097;-69
2021/05/29 03:26:39;;;;;;;29.33;20.58;;;11.40;97.60;;;;;;6124397;23;20491;-69
2021/05/29 03:29:06;;;;;;;25.95;20.45;;;11.50;97.00;;;;;;6122069;23;20032;-69
2021/05/29 03:31:33;;;;;;;24.90;18.15;;;11.50;97.00;;;;;;6121901;23;20425;-69
2021/05/29 03:33:59;;;;;;;27.70;19.80;;;11.50;96.90;;;;;;6123013;23;20025;-68
2021/05/29 03:36:25;;;;;;;27.90;19.58;;;11.50;96.80;;;;;;6145079;23;20535;-69
2021/05/29 03:38:51;;;;;;;25.90;19.33;;;11.60;96.70;;;;;;6121640;23;20060;-69
2021/05/29 03:41:17;;;;;;;24.30;20.45;;;11.60;96.80;;;;;;6124559;23;20025;-69
2021/05/29 03:43:43;;;;;;;23.35;19.13;;;11.70;96.90;;;;;;6144492;23;20030;-69
2021/05/29 03:46:10;;;;;;;23.77;19.35;;;11.80;96.60;;;;;;6121244;23;20053;-68
2021/05/29 03:48:36;;;;;;;33.20;25.10;;;11.80;96.70;;;;;;6124213;23;20022;-69
2021/05/29 03:51:02;;;;;;;33.28;24.80;;;11.80;96.50;;;;;;6121935;23;20334;-69
2021/05/29 03:53:29;;;;;;;36.67;25.95;;;11.90;96.10;;;;;;6120235;23;20053;-69
2021/05/29 03:55:55;;;;;;;29.92;21.17;;;12.00;96.20;;;;;;6124237;23;20029;-69
2021/05/29 03:58:21;;;;;;;31.50;22.50;;;12.00;96.20;;;;;;6121296;23;20049;-69
2021/05/29 04:00:48;;;;;;;22.52;18.85;;;12.00;95.80;;;;;;6121394;23;20029;-69
2021/05/29 04:03:14;;;;;;;19.63;16.73;;;12.10;96.10;;;;;;6146931;23;20469;-69
2021/05/29 04:05:40;;;;;;;21.52;17.20;;;12.20;95.90;;;;;;6120167;23;20022;-69
2021/05/29 04:08:07;;;;;;;16.35;14.18;;;12.30;95.60;;;;;;6095513;23;20439;-69
2021/05/29 04:10:35;;;;;;;15.85;12.77;;;12.40;95.20;;;;;;6122565;23;20086;-69
2021/05/29 04:13:01;;;;;;;15.98;13.65;;;12.40;95.00;;;;;;6144337;23;20459;-69
2021/05/29 04:15:27;;;;;;;15.48;12.07;;;12.40;95.30;;;;;;6119824;23;20053;-69
2021/05/29 04:17:54;;;;;;;19.73;12.98;;;12.40;95.40;;;;;;6122180;23;20535;-69
2021/05/29 04:20:22;;;;;;;18.58;11.95;;;12.30;95.50;;;;;;6121427;23;20022;-69
2021/05/29 04:22:48;;;;;;;15.98;12.50;;;12.40;95.60;;;;;;6121512;23;20041;-69
2021/05/29 04:25:17;;;;;;;16.92;12.85;;;12.50;95.50;;;;;;6121381;23;20105;-69
2021/05/29 04:27:44;;;;;;;18.83;13.30;;;12.60;94.90;;;;;;6121065;23;20105;-69
2021/05/29 04:30:12;;;;;;;16.10;12.90;;;12.70;94.70;;;;;;6121586;23;20053;-69
2021/05/29 04:32:38;;;;;;;15.25;12.27;;;12.90;94.50;;;;;;6123368;23;20022;-69
2021/05/29 04:35:06;;;;;;;16.00;11.68;;;12.80;94.40;;;;;;6121788;23;20022;-69
2021/05/29 04:37:32;;;;;;;16.25;13.27;;;12.90;94.30;;;;;;6144243;23;20057;-69
2021/05/29 04:39:58;;;;;;;17.55;12.77;;;13.00;94.20;;;;;;6121136;23;20104;-69
2021/05/29 04:42:24;;;;;;;14.63;12.45;;;13.10;93.90;;;;;;6121032;23;20464;-69
2021/05/29 04:44:50;;;;;;;15.65;12.05;;;13.10;93.80;;;;;;6121000;23;20053;-69
2021/05/29 04:47:16;;;;;;;14.30;12.25;;;13.30;93.30;;;;;;6145848;23;20052;-69
2021/05/29 04:49:43;;;;;;;14.63;12.38;;;13.40;93.10;;;;;;6121086;23;20465;-69
2021/05/29 04:52:09;;;;;;;14.13;12.43;;;13.40;93.20;;;;;;6120859;23;20092;-69
2021/05/29 04:54:37;;;;;;;14.63;11.98;;;13.70;93.00;;;;;;6121178;23;20060;-69
2021/05/29 04:57:03;;;;;;;13.82;12.38;;;13.90;92.30;;;;;;6120779;23;20052;-69
2021/05/29 04:59:29;;;;;;;14.68;11.80;;;13.90;92.20;;;;;;6119182;23;20570;-69
2021/05/29 05:01:55;;;;;;;11.25;10.15;;;14.30;91.50;;;;;;6122706;23;20030;-69
2021/05/29 05:04:21;;;;;;;13.52;11.57;;;14.80;91.20;;;;;;6120962;23;20028;-70
2021/05/29 05:06:47;;;;;;;12.00;10.30;;;15.10;90.30;;;;;;6120704;23;20146;-69
2021/05/29 05:09:13;;;;;;;18.08;10.75;;;15.20;89.40;;;;;;6123030;23;20029;-69
2021/05/29 05:11:39;;;;;;;10.38;9.30;;;15.50;88.70;;;;;;6120959;23;20018;-69
2021/05/29 05:14:05;;;;;;;9.98;8.98;;;15.60;88.50;;;;;;6120882;23;20052;-70
2021/05/29 05:16:31;;;;;;;10.18;9.18;;;15.80;87.00;;;;;;6121215;23;20520;-69
2021/05/29 05:18:57;;;;;;;10.85;9.57;;;15.80;86.20;;;;;;6143450;23;20050;-69
2021/05/29 05:21:23;;;;;;;13.77;9.80;;;15.80;85.80;;;;;;6120425;23;20081;-69
2021/05/29 05:23:52;;;;;;;14.00;9.90;;;15.90;86.30;;;;;;6122486;23;20022;-70
2021/05/29 05:26:20;;;;;;;13.02;9.85;;;16.00;85.20;;;;;;6118945;23;20032;-69
2021/05/29 05:28:46;;;;;;;12.90;8.60;;;15.90;85.20;;;;;;6118818;23;20093;-69
2021/05/29 05:31:13;;;;;;;11.20;9.57;;;16.00;85.00;;;;;;6121072;23;20417;-69
2021/05/29 05:33:45;;;;;;;10.93;9.20;;;15.90;84.90;;;;;;6120630;23;20026;-70
2021/05/29 05:36:12;;;;;;;9.33;8.53;;;16.10;85.20;;;;;;6120816;23;20089;-70
2021/05/29 05:38:40;;;;;;;10.82;9.45;;;16.10;84.70;;;;;;6120611;23;20561;-70
2021/05/29 05:41:08;;;;;;;10.25;9.23;;;16.10;84.20;;;;;;6122638;23;20021;-70
2021/05/29 05:43:35;;;;;;;11.32;9.00;;;16.20;84.10;;;;;;6118962;23;20536;-70
2021/05/29 05:46:01;;;;;;;12.02;9.00;;;16.40;83.90;;;;;;6120740;23;20026;-70
2021/05/29 05:48:28;;;;;;;12.00;9.85;;;16.50;83.40;;;;;;6124078;23;20028;-70
2021/05/29 05:50:58;;;;;;;13.38;9.85;;;16.70;83.30;;;;;;6120667;23;20483;-70
2021/05/29 05:53:27;;;;;;;13.45;9.50;;;16.90;82.50;;;;;;6119263;23;20017;-68
2021/05/29 05:56:01;;;;;;;11.35;9.57;;;16.90;83.00;;;;;;6123700;23;20117;-69
2021/05/29 05:58:28;;;;;;;10.50;9.40;;;17.00;82.40;;;;;;6120392;23;20089;-70
2021/05/29 06:00:55;;;;;;;11.63;9.18;;;16.80;82.80;;;;;;6124107;23;20548;-70
2021/05/29 06:03:21;;;;;;;11.63;10.05;;;17.00;82.00;;;;;;6120384;23;20032;-69
2021/05/29 06:05:48;;;;;;;10.88;9.65;;;16.90;82.50;;;;;;6120189;23;20046;-69
2021/05/29 06:08:14;;;;;;;11.30;9.18;;;17.20;81.70;;;;;;6123800;23;20025;-70
2021/05/29 06:10:40;;;;;;;14.40;9.50;;;17.60;80.50;;;;;;6122492;23;20034;-70
2021/05/29 06:13:10;;;;;;;10.45;8.77;;;17.90;79.00;;;;;;6143139;23;20093;-70
2021/05/29 06:20:53;;;;;;;10.10;9.10;;;19.50;74.40;;;;;;6146277;23;20022;-70
2021/05/29 06:23:19;;;;;;;10.25;9.25;;;19.90;73.60;;;;;;6145034;23;20471;-70
2021/05/29 06:25:46;;;;;;;9.77;8.88;;;20.10;73.10;;;;;;6119958;23;20419;-69
2021/05/29 06:28:12;;;;;;;10.52;9.43;;;20.50;71.60;;;;;;6123612;23;20029;-70
2021/05/29 06:30:38;;;;;;;9.95;8.95;;;20.50;71.70;;;;;;6122029;23;20022;-70
2021/05/29 06:33:06;;;;;;;9.27;8.43;;;21.30;70.10;;;;;;6120073;23;20025;-70
2021/05/29 06:35:33;;;;;;;9.43;8.18;;;22.30;67.60;;;;;;6123673;23;20023;-71
2021/05/29 06:38:00;;;;;;;8.90;8.00;;;23.10;65.50;;;;;;6117841;23;20026;-66
2021/05/29 06:40:26;;;;;;;7.82;7.05;;;24.20;63.30;;;;;;6119815;23;20097;-65
2021/05/29 06:42:52;;;;;;;7.32;6.80;;;25.80;58.90;;;;;;6121427;23;20053;-67
2021/05/29 06:45:18;;;;;;;7.70;6.50;;;27.40;54.90;;;;;;6120287;23;20022;-66
2021/05/29 06:47:45;;;;;;;13.07;5.90;;;27.30;56.40;;;;;;6119641;23;20085;-67
2021/05/29 06:50:11;;;;;;;6.35;5.07;;;28.50;53.80;;;;;;6122143;23;20057;-65
2021/05/29 06:52:41;;;;;;;7.68;5.80;;;29.50;51.70;;;;;;6120316;23;20364;-64
2021/05/29 07:00:19;;;;;;;5.18;4.70;;;29.80;51.20;;;;;;6120074;23;20045;-69
2021/05/29 07:02:45;;;;;;;5.40;4.32;;;29.00;51.20;;;;;;6119822;23;20026;-65
2021/05/29 07:05:11;;;;;;;5.82;5.32;;;27.60;53.70;;;;;;6123731;23;20116;-67
2021/05/29 07:07:38;;;;;;;4.70;4.30;;;27.10;54.40;;;;;;6120195;23;20057;-68
2021/05/29 07:10:07;;;;;;;5.18;4.75;;;26.30;55.60;;;;;;6118574;23;20026;-73
2021/05/29 07:12:33;;;;;;;4.90;4.60;;;25.30;57.20;;;;;;6121231;23;20405;-69
2021/05/29 07:14:59;;;;;;;5.38;4.88;;;24.30;59.60;;;;;;6119727;23;20053;-67
2021/05/29 07:17:31;;;;;;;4.90;4.50;;;23.50;61.20;;;;;;6140928;23;20060;-69
2021/05/29 07:19:57;;;;;;;5.63;4.75;;;23.60;60.80;;;;;;6143976;23;20109;-69
2021/05/29 07:22:23;;;;;;;6.38;5.35;;;24.00;59.40;;;;;;6141548;23;20092;-70
2021/05/29 07:24:49;;;;;;;5.43;4.95;;;24.90;58.30;;;;;;6121388;23;20018;-81
2021/05/29 07:27:15;;;;;;;7.63;5.07;;;26.20;56.10;;;;;;6144090;23;20029;-74
2021/05/29 07:29:42;;;;;;;5.47;4.97;;;27.60;53.90;;;;;;6121321;23;20018;-74
2021/05/29 07:32:08;;;;;;;4.20;4.10;;;27.40;53.40;;;;;;6121706;23;20073;-72
2021/05/29 07:34:33;;;;;;;5.05;4.55;;;26.60;54.20;;;;;;6120128;23;20033;-76
2021/05/29 07:37:00;;;;;;;5.07;4.78;;;25.80;56.20;;;;;;6143430;23;20409;-73
2021/05/29 07:39:26;;;;;;;3.42;3.28;;;26.10;55.60;;;;;;6116850;23;20032;-71
2021/05/29 07:41:52;;;;;;;8.48;3.65;;;28.10;53.20;;;;;;6123746;23;20026;-70
2021/05/29 07:44:18;;;;;;;4.22;3.60;;;28.60;52.20;;;;;;6118054;23;20045;-69
2021/05/29 07:46:43;;;;;;;3.80;3.50;;;30.00;50.40;;;;;;6093781;23;20373;-68
2021/05/29 07:49:10;;;;;;;4.75;3.15;;;32.60;46.90;;;;;;6122879;23;20026;-81
2021/05/29 07:51:36;;;;;;;3.08;2.88;;;33.40;44.70;;;;;;6140500;23;20052;-72
2021/05/29 07:54:08;;;;;;;2.97;2.75;;;32.80;45.50;;;;;;6093847;23;20025;-70
2021/05/29 07:56:34;;;;;;;8.15;2.80;;;32.40;46.40;;;;;;6122447;23;20026;-75
2021/05/29 07:59:10;;;;;;;7.50;3.15;;;30.60;48.40;;;;;;6118061;23;20073;-70
2021/05/29 08:01:36;;;;;;;7.90;2.88;;;28.20;51.90;;;;;;6120825;23;20577;-70
2021/05/29 08:04:03;;;;;;;3.28;2.70;;;26.70;54.00;;;;;;6117888;23;20061;-77
2021/05/29 08:06:29;;;;;;;3.85;3.42;;;25.80;55.80;;;;;;6145565;23;20073;-77
2021/05/29 08:08:55;;;;;;;4.90;3.05;;;25.00;58.00;;;;;;6119293;23;20523;-77
2021/05/29 08:11:22;;;;;;;3.60;2.47;;;23.80;59.90;;;;;;6141338;23;20066;-71
2021/05/29 08:13:54;;;;;;;11.98;2.85;;;22.90;60.60;;;;;;6117095;23;20028;-74
2021/05/29 08:16:23;;;;;;;4.38;2.95;;;22.40;61.40;;;;;;6118935;23;20100;-73
2021/05/29 08:18:51;;;;;;;8.25;2.65;;;22.40;62.70;;;;;;6138628;23;20022;-65
2021/05/29 08:21:17;;;;;;;16.98;4.00;;;22.40;62.90;;;;;;6092703;23;20033;-65
2021/05/29 08:23:43;;;;;;;30.08;4.35;;;22.30;62.80;;;;;;6119332;23;20096;-65
2021/05/29 08:26:09;;;;;;;15.88;4.00;;;22.00;63.20;;;;;;6119277;23;20455;-63
2021/05/29 08:28:36;;;;;;;22.70;4.32;;;21.80;64.20;;;;;;6119369;23;20021;-65
2021/05/29 08:31:04;;;;;;;7.18;3.72;;;21.90;63.90;;;;;;6118175;23;20033;-66
2021/05/29 08:33:30;;;;;;;8.18;3.58;;;21.90;63.70;;;;;;6118859;23;20076;-65
2021/05/29 08:35:57;;;;;;;10.77;5.20;;;21.30;65.80;;;;;;6117890;23;20363;-67
2021/05/29 08:38:23;;;;;;;6.72;3.92;;;20.60;66.50;;;;;;6119836;23;20018;-70
2021/05/29 08:40:49;;;;;;;3.17;2.88;;;20.10;68.00;;;;;;6141335;23;20018;-69
2021/05/29 08:43:15;;;;;;;4.00;2.28;;;19.90;67.00;;;;;;6141504;23;20109;-73
2021/05/29 08:45:43;;;;;;;4.50;2.33;;;20.00;66.30;;;;;;6145753;23;20026;-63
2021/05/29 08:48:10;;;;;;;10.25;2.35;;;20.50;65.90;;;;;;6120185;23;20413;-63
2021/05/29 08:50:36;;;;;;;1.83;1.73;;;21.70;63.50;;;;;;6124175;23;20472;-68
2021/05/29 08:53:03;;;;;;;3.30;2.03;;;24.40;56.10;;;;;;6120423;23;20468;-72
2021/05/29 08:55:29;;;;;;;9.55;1.50;;;27.00;52.30;;;;;;6118249;23;20405;-70
2021/05/29 08:57:55;;;;;;;1.35;1.35;;;29.30;49.00;;;;;;6120898;23;20029;-70
2021/05/29 09:00:25;;;;;;;9.43;0.80;;;29.50;47.40;;;;;;6119320;23;20072;-70
2021/05/29 09:03:04;;;;;;;1.90;0.57;;;30.40;47.50;;;;;;6120011;23;20029;-70
2021/05/29 09:05:40;;;;;;;2.42;0.73;;;31.30;46.50;;;;;;6119237;23;20026;-69
2021/05/29 09:08:09;;;;;;;6.75;1.05;;;31.60;44.40;;;;;;6119791;23;20124;-70
2021/05/29 09:10:41;;;;;;;5.97;0.68;;;31.90;45.20;;;;;;6118217;23;20026;-70
2021/05/29 09:13:11;;;;;;;;;;;31.40;45.50;;;;;;6118738;23;20495;-70
2021/05/29 09:15:48;;;;;;;0.70;0.70;;;30.80;45.80;;;;;;6119274;23;19920;-70
2021/05/29 09:18:40;;;;;;;8.13;0.80;;;29.40;47.90;;;;;;6122619;23;20021;-65
2021/05/29 09:21:17;;;;;;;1.67;0.90;;;27.30;50.80;;;;;;6119617;23;20025;-68
2021/05/29 09:23:51;;;;;;;6.20;0.88;;;26.00;53.50;;;;;;6143364;23;20014;-70
2021/05/29 09:26:20;;;;;;;9.23;1.10;;;24.90;55.50;;;;;;6120397;23;20053;-65
2021/05/29 09:28:47;;;;;;;2.67;1.48;;;23.70;58.10;;;;;;6121401;23;20022;-65
2021/05/29 09:31:14;;;;;;;0.93;0.93;;;23.40;58.50;;;;;;6118794;23;20984;-65
2021/05/29 09:33:42;;;;;;;3.78;0.90;;;22.60;61.00;;;;;;6120616;23;20498;-65
2021/05/29 09:36:11;;;;;;;0.60;0.60;;;22.80;59.90;;;;;;6119991;23;20089;-65
2021/05/29 09:38:41;;;;;;;2.47;0.65;;;23.70;58.60;;;;;;6124291;23;20442;-66
2021/05/29 09:41:21;;;;;;;5.03;0.80;;;24.70;55.70;;;;;;6120318;23;20395;-66
2021/05/29 09:44:14;;;;;;;1.17;0.63;;;24.50;55.60;;;;;;6123799;23;20076;-66
2021/05/29 09:46:54;;;;;;;0.85;0.52;;;26.30;51.70;;;;;;6118022;23;20025;-66
2021/05/29 09:49:20;;;;;;;0.30;0.30;;;28.80;47.50;;;;;;6144960;23;20405;-66
2021/05/29 09:51:47;;;;;;;0.65;0.40;;;29.00;47.00;;;;;;6118875;23;20783;-66
2021/05/29 09:54:13;;;;;;;3.30;0.30;;;27.40;49.20;;;;;;6122541;23;20053;-67
2021/05/29 09:56:42;;;;;;;3.47;0.30;;;26.30;50.60;;;;;;6120591;23;20022;-66
2021/05/29 09:59:13;;;;;;;2.42;0.20;;;25.10;52.40;;;;;;6120457;23;20053;-66
2021/05/29 10:01:54;;;;;;;2.72;0.60;;;24.40;54.40;;;;;;6121680;23;20018;-66
2021/05/29 10:04:37;;;;;;;0.50;0.45;;;24.00;55.30;;;;;;6120474;23;20495;-66
2021/05/29 10:07:10;;;;;;;1.08;0.30;;;23.70;55.70;;;;;;6121538;23;20021;-66
2021/05/29 10:09:36;;;;;;;1.38;0.60;;;22.90;58.10;;;;;;6120596;23;20480;-66
2021/05/29 10:12:04;;;;;;;3.20;0.75;;;23.10;58.40;;;;;;6142975;23;20028;-66
2021/05/29 10:14:31;;;;;;;0.50;0.50;;;23.50;57.40;;;;;;6123472;23;20028;-66
2021/05/29 10:17:03;;;;;;;0.77;0.77;;;24.20;56.70;;;;;;6118826;23;20097;-66
2021/05/29 10:19:30;;;;;;;2.28;0.50;;;23.40;57.80;;;;;;6121044;23;20046;-66
2021/05/29 10:21:56;;;;;;;1.60;0.30;;;22.60;58.50;;;;;;6117493;23;20333;-66
2021/05/29 10:24:24;;;;;;;0.90;0.70;;;21.90;59.20;;;;;;6119192;23;20022;-65
2021/05/29 10:26:53;;;;;;;4.40;0.70;;;21.80;59.50;;;;;;6122760;23;20022;-66
2021/05/29 10:29:26;;;;;;;2.22;0.73;;;21.90;59.60;;;;;;6119730;23;20021;-68
2021/05/29 10:32:12;;;;;;;3.20;0.43;;;21.40;61.20;;;;;;6118550;23;20053;-69
2021/05/29 10:35:11;;;;;;;3.13;0.70;;;21.20;60.10;;;;;;6143189;23;20054;-67
2021/05/29 10:37:53;;;;;;;1.15;0.40;;;21.30;59.80;;;;;;6118283;23;20042;-76
2021/05/29 10:40:21;;;;;;;1.45;0.57;;;22.50;57.60;;;;;;6120551;23;20024;-69
2021/05/29 10:43:07;;;;;;;3.03;0.40;;;23.00;56.50;;;;;;6119859;23;20022;-69
2021/05/29 10:45:54;;;;;;;1.48;0.30;;;22.50;57.70;;;;;;6120652;23;20026;-69
2021/05/29 10:48:21;;;;;;;2.35;0.30;;;22.70;57.80;;;;;;6107967;23;20022;-69
2021/05/29 10:53:47;;;;;;;0.20;0.20;;;22.40;57.70;;;;;;6119610;23;20093;-68
2021/05/29 10:56:21;;;;;;;3.22;0.40;;;22.70;56.50;;;;;;6144471;23;20030;-67
2021/05/29 10:59:07;;;;;;;0.75;0.20;;;22.70;56.90;;;;;;6121595;23;20053;-67
2021/05/29 11:01:46;;;;;;;1.27;0.50;;;22.20;58.80;;;;;;6125260;23;20237;-72
2021/05/29 11:04:15;;;;;;;4.70;0.20;;;22.10;59.90;;;;;;6144621;23;20419;-69
2021/05/29 11:06:48;;;;;;;9.85;0.20;;;22.40;58.60;;;;;;6124800;23;20026;-70
2021/05/29 11:09:16;;;;;;;4.05;0.10;;;22.10;59.00;;;;;;6119872;23;20033;-72
2021/05/29 11:11:43;;;;;;;1.05;0.05;;;22.60;56.90;;;;;;6148176;23;20077;-67
2021/05/29 11:14:11;;;;;;;0.20;0.00;;;22.60;56.40;;;;;;6145000;23;20021;-70
2021/05/29 11:16:46;;;;;;;5.63;0.10;;;23.40;54.40;;;;;;6120473;23;20490;-70
2021/05/29 11:19:31;;;;;;;1.23;0.20;;;24.30;53.00;;;;;;6145422;23;20017;-71
2021/05/29 11:22:22;;;;;;;2.35;0.05;;;24.40;53.90;;;;;;6120465;23;20033;-71
2021/05/29 11:24:53;;;;;;;1.10;0.10;;;24.90;52.30;;;;;;6121854;23;20033;-69
2021/05/29 11:27:28;;;;;;;1.58;0.08;;;24.90;52.60;;;;;;6121694;23;20056;-69
2021/05/29 11:30:00;;;;;;;0.65;0.13;;;24.60;52.60;;;;;;6125573;23;20050;-71
2021/05/29 11:32:44;;;;;;;6.07;0.22;;;24.00;53.30;;;;;;6120244;23;20022;-70
2021/05/29 11:35:34;;;;;;;0.30;0.20;;;24.10;53.20;;;;;;6124414;23;20076;-73
2021/05/29 11:38:21;;;;;;;0.30;0.30;;;23.70;54.40;;;;;;6121752;23;20382;-73
2021/05/29 11:40:54;;;;;;;0.10;0.10;;;23.80;54.50;;;;;;6123178;23;20029;-71
2021/05/29 11:43:33;;;;;;;3.92;0.40;;;24.30;53.30;;;;;;6144572;23;20052;-71
2021/05/29 11:46:00;;;;;;;1.30;0.25;;;24.50;53.20;;;;;;6122689;23;20026;-71
2021/05/29 11:48:46;;;;;;;1.48;0.20;;;24.40;53.10;;;;;;6121329;23;20028;-71
2021/05/29 11:51:18;;;;;;;5.15;0.10;;;24.40;52.70;;;;;;6121678;23;20464;-72
2021/05/29 11:53:54;;;;;;;0.23;0.20;;;24.30;53.10;;;;;;6144183;23;20037;-72
2021/05/29 11:56:30;;;;;;;0.35;0.10;;;24.10;53.00;;;;;;6121435;23;20389;-69
2021/05/29 11:58:56;;;;;;;1.70;0.10;;;24.30;52.60;;;;;;6144444;23;20021;-70
2021/05/29 12:01:27;;;;;;;1.77;0.10;;;24.10;53.70;;;;;;6144561;23;20033;-72
2021/05/29 12:03:56;;;;;;;2.08;0.10;;;24.20;53.00;;;;;;6124603;23;20073;-72
2021/05/29 12:06:34;;;;;;;0.98;0.10;;;23.60;53.60;;;;;;6121087;23;20066;-73
2021/05/29 12:09:04;;;;;;;2.40;0.10;;;23.50;53.80;;;;;;6125079;23;20053;-72
2021/05/29 12:11:32;;;;;;;1.25;0.10;;;23.30;53.80;;;;;;6120165;23;20097;-70
2021/05/29 12:14:27;;;;;;;0.20;0.20;;;23.10;54.30;;;;;;6121165;23;20527;-72
2021/05/29 12:16:55;;;;;;;2.40;0.13;;;23.00;55.20;;;;;;6118401;23;20412;-64
2021/05/29 12:19:33;;;;;;;0.98;0.35;;;22.60;56.50;;;;;;6121467;23;20101;-71
2021/05/29 12:22:09;;;;;;;0.65;0.10;;;22.60;56.70;;;;;;6119681;23;20022;-67
2021/05/29 12:24:44;;;;;;;2.63;0.10;;;22.60;56.20;;;;;;6125389;23;20033;-64
2021/05/29 12:27:15;;;;;;;3.13;0.40;;;22.50;56.30;;;;;;6121120;23;20053;-73
2021/05/29 12:29:42;;;;;;;2.55;0.50;;;22.50;56.20;;;;;;6121826;23;20072;-72
2021/05/29 12:32:10;;;;;;;20.48;0.30;;;22.30;55.70;;;;;;6099017;23;20104;-72
2021/05/29 12:34:50;;;;;;;3.70;0.22;;;22.10;56.40;;;;;;6119312;23;20506;-72
2021/05/29 12:37:28;;;;;;;0.10;0.05;;;21.90;55.10;;;;;;6119820;23;20499;-72
2021/05/29 12:40:13;;;;;;;2.35;0.10;;;21.70;55.80;;;;;;6121006;23;20484;-72
2021/05/29 12:42:47;;;;;;;1.55;0.10;;;21.30;57.20;;;;;;6144239;23;20022;-72
2021/05/29 12:45:25;;;;;;;2.88;0.70;;;21.10;57.90;;;;;;6143848;23;20081;-70
2021/05/29 12:48:00;;;;;;;4.13;0.15;;;21.00;58.20;;;;;;6121174;23;20318;-72
2021/05/29 12:50:37;;;;;;;0.60;0.20;;;20.70;58.70;;;;;;6121010;23;20032;-71
2021/05/29 12:53:12;;;;;;;0.32;0.10;;;20.50;59.10;;;;;;6121544;23;20104;-73
2021/05/29 12:55:38;;;;;;;3.33;0.47;;;20.20;60.20;;;;;;6143349;23;20516;-73
2021/05/29 12:58:18;;;;;;;0.52;0.28;;;20.00;60.90;;;;;;6098488;23;20076;-73
2021/05/29 13:09:23;;;;;;;0.43;0.43;;;19.80;61.50;;;;;;6121725;23;20036;-73
2021/05/29 13:11:49;;;;;;;3.20;0.35;;;19.50;62.20;;;;;;6120921;23;20544;-73
2021/05/29 13:14:18;;;;;;;6.03;0.30;;;19.70;61.70;;;;;;6122022;23;20017;-77